Time;durP1;ratioP1;P1;durP2;ratioP2;P2;SDS_P1;SDS_P2;PMS_P1;PMS_P2;Temp;Humidity;BMP_temperature;BMP_pressure;BME280_temperature;BME280_humidity;BME280_pressure;Samples;Min_cycle;Max_cycle;Signal;HPM_P1;HPM_P2
2022/07/06 00:01:15;;;;;;;4.93;0.22;;;;;;;12.99;49.04;102314.16;5010645;28;20101;-80
2022/07/06 00:03:41;;;;;;;4.57;1.08;;;;;;;13.09;49.06;102309.50;5014566;28;20192;-78
2022/07/06 00:06:07;;;;;;;3.47;0.30;;;;;;;12.93;48.56;102302.97;5018910;28;20606;-79
2022/07/06 00:08:32;;;;;;;6.18;0.17;;;;;;;12.89;48.85;102317.94;5017455;28;20495;-79
2022/07/06 00:10:58;;;;;;;1.88;0.28;;;;;;;12.93;49.14;102308.22;4995732;28;20026;-79
2022/07/06 00:13:23;;;;;;;1.50;0.20;;;;;;;12.85;49.47;102305.81;5010510;28;20041;-78
2022/07/06 00:15:49;;;;;;;1.17;0.30;;;;;;;12.92;49.42;102303.88;5013986;28;20468;-78
2022/07/06 00:18:14;;;;;;;3.08;0.20;;;;;;;12.85;49.28;102300.56;4992075;28;20049;-78
2022/07/06 00:20:40;;;;;;;1.15;0.43;;;;;;;12.78;49.41;102304.25;5016201;28;20040;-79
2022/07/06 00:23:05;;;;;;;4.38;0.52;;;;;;;12.87;49.68;102299.63;5013599;28;20451;-78
2022/07/06 00:25:31;;;;;;;2.78;0.30;;;;;;;12.94;49.22;102302.06;5005357;28;20381;-78
2022/07/06 00:27:56;;;;;;;3.67;0.20;;;;;;;12.93;49.17;102309.06;5013213;28;20111;-77
2022/07/06 00:30:21;;;;;;;4.20;0.38;;;;;;;12.95;49.10;102302.03;4997187;28;20032;-78
2022/07/06 00:32:47;;;;;;;1.27;0.15;;;;;;;12.83;48.68;102303.22;4993994;28;20515;-76
2022/07/06 00:35:13;;;;;;;0.98;0.30;;;;;;;12.80;49.73;102305.06;5016502;28;20172;-77
2022/07/06 00:37:38;;;;;;;1.02;0.10;;;;;;;12.88;49.53;102311.81;5028947;28;20047;-79
2022/07/06 00:40:04;;;;;;;2.90;0.47;;;;;;;12.83;49.05;102311.09;5009617;28;20068;-78
2022/07/06 00:42:30;;;;;;;2.05;0.30;;;;;;;12.85;49.14;102306.66;5031613;28;20038;-78
2022/07/06 00:44:55;;;;;;;3.53;0.40;;;;;;;12.82;48.63;102311.97;5027709;28;20126;-77
2022/07/06 00:47:21;;;;;;;1.42;0.30;;;;;;;12.86;48.86;102307.53;5000460;28;20549;-80
2022/07/06 00:52:30;;;;;;;3.30;0.22;;;;;;;12.77;48.60;102302.53;5010559;28;20057;-78
2022/07/06 00:54:57;;;;;;;2.05;1.02;;;;;;;12.65;48.93;102304.53;5005648;28;20486;-78
2022/07/06 00:57:23;;;;;;;1.63;0.28;;;;;;;12.77;48.58;102313.88;4994713;28;20084;-78
2022/07/06 00:59:49;;;;;;;3.67;0.28;;;;;;;12.72;48.68;102310.53;5009029;28;20905;-77
2022/07/06 01:02:14;;;;;;;2.25;0.25;;;;;;;12.67;48.06;102301.88;5011024;28;20711;-77
2022/07/06 01:04:40;;;;;;;4.00;0.15;;;;;;;12.65;48.15;102309.78;5014995;28;20412;-78
2022/07/06 01:07:05;;;;;;;1.55;0.10;;;;;;;12.39;48.77;102312.22;4992772;28;20216;-77
2022/07/06 01:09:31;;;;;;;2.63;0.30;;;;;;;12.34;49.19;102314.94;5010099;28;20025;-78
2022/07/06 01:11:56;;;;;;;0.82;0.32;;;;;;;12.41;48.79;102313.03;5007311;28;20333;-78
2022/07/06 01:14:22;;;;;;;0.85;0.10;;;;;;;12.44;48.43;102310.31;5008736;28;20033;-77
2022/07/06 01:16:48;;;;;;;1.45;0.75;;;;;;;12.54;48.22;102309.22;4996834;28;20779;-77
2022/07/06 01:19:14;;;;;;;4.07;0.30;;;;;;;12.53;47.97;102298.75;5024699;28;20053;-76
2022/07/06 01:21:40;;;;;;;3.35;0.10;;;;;;;12.58;47.90;102299.47;5006094;28;20122;-78
2022/07/06 01:24:06;;;;;;;4.28;0.35;;;;;;;12.49;48.04;102297.94;4997514;28;20032;-78
2022/07/06 01:26:32;;;;;;;4.85;0.45;;;;;;;12.53;48.16;102294.34;5012409;28;20045;-76
2022/07/06 01:28:57;;;;;;;0.93;0.10;;;;;;;12.55;47.99;102297.78;5007106;28;20045;-76
2022/07/06 01:31:25;;;;;;;3.70;0.10;;;;;;;12.43;47.86;102309.47;4995956;28;20042;-78
2022/07/06 01:33:52;;;;;;;1.85;0.10;;;;;;;12.51;47.63;102306.63;5027776;28;20280;-77
2022/07/06 01:36:18;;;;;;;0.38;0.13;;;;;;;12.24;48.38;102314.28;5009354;28;20045;-77
2022/07/06 01:38:48;;;;;;;5.72;0.95;;;;;;;11.79;49.18;102311.84;4995783;28;20028;-77
2022/07/06 01:41:14;;;;;;;2.97;0.35;;;;;;;11.85;49.33;102310.84;5005556;28;20033;-78
2022/07/06 01:43:40;;;;;;;0.60;0.05;;;;;;;11.60;49.35;102307.91;5008283;28;20041;-79
2022/07/06 01:46:05;;;;;;;2.00;0.20;;;;;;;11.69;48.54;102299.84;5014443;28;20057;-80
2022/07/06 01:48:31;;;;;;;2.13;0.40;;;;;;;11.70;47.93;102288.44;5008253;28;20042;-77
2022/07/06 01:50:57;;;;;;;1.00;0.13;;;;;;;11.79;47.17;102282.19;4992265;28;20782;-76
2022/07/06 01:53:23;;;;;;;2.35;0.10;;;;;;;12.00;46.63;102275.56;5007857;28;20049;-77
2022/07/06 01:55:49;;;;;;;2.58;0.50;;;;;;;12.19;46.26;102274.22;5013441;28;20041;-77
2022/07/06 01:58:15;;;;;;;5.93;0.10;;;;;;;12.16;46.39;102276.94;5003964;28;20056;-77
2022/07/06 02:00:41;;;;;;;2.22;0.10;;;;;;;12.07;46.23;102277.16;5012999;28;20010;-78
2022/07/06 02:03:07;;;;;;;3.38;0.28;;;;;;;12.18;46.19;102275.16;5016259;28;20102;-77
2022/07/06 02:05:34;;;;;;;4.15;0.10;;;;;;;12.21;46.43;102288.16;5021045;28;20060;-78
2022/07/06 02:08:00;;;;;;;1.77;0.10;;;;;;;12.26;46.39;102277.56;4998907;28;20053;-78
2022/07/06 02:10:25;;;;;;;2.53;0.20;;;;;;;12.27;46.40;102280.16;5017581;28;20126;-77
2022/07/06 02:12:51;;;;;;;1.25;0.10;;;;;;;12.26;46.34;102280.19;4992211;28;20054;-78
2022/07/06 02:15:16;;;;;;;0.22;0.10;;;;;;;12.17;46.94;102278.66;5018573;28;20060;-79
2022/07/06 02:17:42;;;;;;;0.43;0.10;;;;;;;12.10;46.66;102277.09;5010582;28;20117;-77
2022/07/06 02:20:08;;;;;;;1.05;0.10;;;;;;;12.25;46.60;102276.72;5003064;28;20588;-77
2022/07/06 02:22:34;;;;;;;2.45;0.13;;;;;;;12.27;46.41;102277.53;5001147;28;20049;-77
2022/07/06 02:25:00;;;;;;;0.57;0.28;;;;;;;12.26;46.46;102275.78;5014886;28;20240;-77
2022/07/06 02:27:26;;;;;;;0.95;0.10;;;;;;;12.25;46.22;102274.09;5010418;28;20053;-77
2022/07/06 02:29:52;;;;;;;3.83;0.20;;;;;;;12.25;46.18;102278.47;5016256;28;20114;-77
2022/07/06 02:32:17;;;;;;;1.38;0.10;;;;;;;12.22;45.93;102275.91;5015777;28;20053;-76
2022/07/06 02:34:43;;;;;;;3.20;0.20;;;;;;;12.30;46.53;102289.69;5011146;28;20061;-77
2022/07/06 02:37:09;;;;;;;0.50;0.00;;;;;;;12.09;46.52;102285.84;5015783;28;20104;-77
2022/07/06 02:39:35;;;;;;;2.67;0.00;;;;;;;12.02;46.68;102286.88;5010501;28;20053;-76
2022/07/06 02:42:02;;;;;;;0.52;0.10;;;;;;;12.11;46.75;102286.69;5010956;28;20041;-76
2022/07/06 02:44:28;;;;;;;1.13;0.10;;;;;;;12.12;47.08;102291.00;5002131;28;20040;-77
2022/07/06 02:46:53;;;;;;;2.75;0.10;;;;;;;12.02;46.65;102289.50;5016576;28;20052;-77
2022/07/06 02:49:20;;;;;;;2.80;0.10;;;;;;;12.08;46.67;102287.59;5014780;28;20517;-78
2022/07/06 02:51:46;;;;;;;1.10;0.10;;;;;;;12.00;47.23;102288.66;5013300;28;20105;-76
2022/07/06 02:54:11;;;;;;;0.52;0.10;;;;;;;12.11;46.57;102286.69;5008400;28;20699;-76
2022/07/06 02:56:37;;;;;;;0.85;0.10;;;;;;;12.06;46.79;102288.53;5031402;28;20906;-80
2022/07/06 02:59:03;;;;;;;1.08;0.17;;;;;;;12.15;46.79;102283.06;5015680;28;20152;-76
2022/07/06 03:01:29;;;;;;;0.85;0.10;;;;;;;12.08;46.75;102281.50;4996865;28;20678;-77
2022/07/06 03:03:54;;;;;;;2.38;0.10;;;;;;;11.95;47.22;102291.41;5008465;28;20141;-76
2022/07/06 03:06:20;;;;;;;0.52;0.10;;;;;;;12.08;47.11;102287.59;4999280;28;20060;-77
2022/07/06 03:08:45;;;;;;;3.15;0.15;;;;;;;12.02;46.61;102292.13;5012402;28;20261;-77
2022/07/06 03:11:11;;;;;;;0.35;0.00;;;;;;;12.00;47.23;102300.03;5000030;28;20411;-76
2022/07/06 03:13:37;;;;;;;0.20;0.00;;;;;;;12.04;47.10;102292.94;5000274;28;20542;-77
2022/07/06 03:16:03;;;;;;;2.75;0.10;;;;;;;12.00;46.98;102299.16;5017020;28;20025;-78
2022/07/06 03:18:30;;;;;;;0.55;0.00;;;;;;;12.06;46.97;102292.00;5020296;28;20029;-76
2022/07/06 03:20:56;;;;;;;1.48;0.10;;;;;;;12.06;47.34;102296.38;5003463;28;20764;-79
2022/07/06 03:23:21;;;;;;;1.38;0.20;;;;;;;12.04;47.04;102301.69;5004893;28;20045;-79
2022/07/06 03:25:47;;;;;;;4.63;0.10;;;;;;;11.72;48.03;102294.50;5017366;28;20033;-80
2022/07/06 03:28:13;;;;;;;2.75;0.30;;;;;;;11.91;47.91;102283.66;5012134;28;20041;-76
2022/07/06 03:30:38;;;;;;;0.75;0.10;;;;;;;11.95;48.42;102298.41;5010519;28;20037;-80
2022/07/06 03:33:04;;;;;;;3.42;0.10;;;;;;;11.90;49.36;102295.03;5014928;28;20503;-78
2022/07/06 03:35:29;;;;;;;4.50;0.10;;;;;;;11.94;49.53;102294.06;5001218;28;20037;-79
2022/07/06 03:37:56;;;;;;;3.42;0.10;;;;;;;11.96;49.64;102293.13;4997608;28;20050;-79
2022/07/06 03:40:23;;;;;;;4.05;0.40;;;;;;;11.90;49.64;102297.66;5015879;28;20128;-78
2022/07/06 03:42:50;;;;;;;1.48;0.30;;;;;;;11.97;49.84;102300.09;4998312;28;20056;-77
2022/07/06 03:45:16;;;;;;;1.35;0.10;;;;;;;12.10;49.84;102300.66;5016827;28;20025;-77
2022/07/06 03:47:41;;;;;;;2.95;0.10;;;;;;;12.07;50.02;102295.50;4993327;28;20876;-78
2022/07/06 03:50:08;;;;;;;2.13;0.30;;;;;;;12.11;49.99;102301.53;5016413;28;20033;-78
2022/07/06 03:52:35;;;;;;;4.57;0.20;;;;;;;12.17;50.49;102302.25;5014780;28;21013;-78
2022/07/06 03:55:00;;;;;;;2.60;0.73;;;;;;;12.20;49.79;102296.94;4994635;28;20739;-78
2022/07/06 03:57:28;;;;;;;1.65;0.10;;;;;;;12.04;50.24;102293.81;4995466;28;20049;-79
2022/07/06 03:59:57;;;;;;;3.35;0.38;;;;;;;12.12;50.23;102287.53;5030129;28;20123;-78
2022/07/06 04:02:23;;;;;;;4.05;0.20;;;;;;;12.15;49.83;102290.94;4995812;28;20071;-78
2022/07/06 04:04:51;;;;;;;0.77;0.10;;;;;;;12.16;50.21;102286.56;5012953;28;20041;-78
2022/07/06 04:07:17;;;;;;;2.25;0.30;;;;;;;12.19;50.07;102284.72;5014040;28;20056;-78
2022/07/06 04:09:42;;;;;;;1.95;0.10;;;;;;;12.36;49.85;102294.81;5009180;28;20036;-76
2022/07/06 04:12:08;;;;;;;2.80;0.20;;;;;;;12.35;48.93;102290.44;4997715;28;20045;-77
2022/07/06 04:14:34;;;;;;;3.08;0.10;;;;;;;12.25;49.61;102288.97;5013002;28;20033;-77
2022/07/06 04:17:51;;;;;;;2.90;0.10;;;;;;;12.05;50.08;102292.06;5008259;28;20145;-77
2022/07/06 04:19:47;;;;;;;2.58;0.10;;;;;;;12.12;49.88;102291.00;5015454;28;20029;-77
2022/07/06 04:22:14;;;;;;;2.47;0.20;;;;;;;12.33;49.33;102291.38;5009592;28;20531;-75
2022/07/06 04:24:40;;;;;;;5.10;0.20;;;;;;;12.37;49.41;102293.03;4997753;28;20063;-77
2022/07/06 04:27:05;;;;;;;2.47;0.10;;;;;;;12.16;49.64;102290.03;5010870;28;20045;-79
2022/07/06 04:29:31;;;;;;;0.32;0.10;;;;;;;12.11;50.10;102291.94;5015136;28;20144;-76
2022/07/06 04:31:56;;;;;;;1.92;0.10;;;;;;;12.16;50.63;102292.66;4999877;28;20045;-77
2022/07/06 04:34:22;;;;;;;4.63;0.40;;;;;;;12.17;50.57;102289.13;5012150;28;20029;-77
2022/07/06 04:36:49;;;;;;;6.50;0.65;;;;;;;12.17;50.15;102289.13;5011683;28;20064;-77
2022/07/06 04:39:14;;;;;;;3.17;0.30;;;;;;;12.33;50.06;102294.84;5012599;28;20053;-77
2022/07/06 04:41:40;;;;;;;7.68;0.38;;;;;;;12.49;50.06;102295.31;4996652;28;20077;-77
2022/07/06 04:44:06;;;;;;;1.08;0.20;;;;;;;12.51;49.66;102296.16;5013041;28;20069;-78
2022/07/06 04:46:31;;;;;;;0.95;0.17;;;;;;;12.40;49.99;102298.19;5015366;28;20075;-77
2022/07/06 04:48:57;;;;;;;0.60;0.20;;;;;;;12.66;49.82;102301.00;4995941;28;20132;-77
2022/07/06 04:51:27;;;;;;;2.28;0.30;;;;;;;12.66;49.20;102297.53;4998299;28;20104;-79
2022/07/06 04:53:53;;;;;;;0.73;0.20;;;;;;;12.78;49.25;102299.00;4995995;28;20069;-78
2022/07/06 04:56:20;;;;;;;7.63;0.30;;;;;;;12.66;49.08;102294.91;5015632;28;20088;-79
2022/07/06 04:58:47;;;;;;;3.30;0.10;;;;;;;12.77;48.85;102298.13;5009863;28;20037;-77
2022/07/06 05:01:15;;;;;;;0.63;0.32;;;;;;;12.84;48.35;102299.69;5001154;28;20157;-79
2022/07/06 05:03:41;;;;;;;2.25;0.10;;;;;;;12.89;48.12;102296.94;5012454;28;20116;-77
2022/07/06 05:06:09;;;;;;;2.25;0.17;;;;;;;12.95;48.23;102298.53;5000860;28;20029;-77
2022/07/06 05:08:35;;;;;;;1.50;0.10;;;;;;;12.64;47.72;102301.94;4999007;28;20025;-76
2022/07/06 05:11:00;;;;;;;2.95;0.20;;;;;;;12.88;47.94;102300.47;4998341;28;20049;-77
2022/07/06 05:13:26;;;;;;;2.30;0.45;;;;;;;13.15;47.78;102298.00;5014646;28;20041;-75
2022/07/06 05:15:53;;;;;;;0.98;0.10;;;;;;;13.36;47.25;102307.91;4994819;28;20444;-76
2022/07/06 05:18:19;;;;;;;3.13;0.30;;;;;;;13.48;46.68;102312.78;5015844;28;20117;-78
2022/07/06 05:20:46;;;;;;;2.20;0.20;;;;;;;13.27;47.09;102314.25;5015919;28;20042;-75
2022/07/06 05:23:13;;;;;;;1.70;0.10;;;;;;;13.46;46.31;102314.59;5001717;28;20429;-75
2022/07/06 05:25:39;;;;;;;2.33;0.10;;;;;;;13.56;46.32;102311.69;5015335;28;20103;-78
2022/07/06 05:28:04;;;;;;;3.40;0.50;;;;;;;13.55;46.34;102318.72;5016232;28;20041;-77
2022/07/06 05:30:30;;;;;;;2.80;0.30;;;;;;;13.60;46.51;102311.56;5029623;28;20160;-75
2022/07/06 05:32:56;;;;;;;1.75;0.10;;;;;;;13.41;46.66;102311.22;4992902;28;20278;-77
2022/07/06 05:35:22;;;;;;;3.03;0.10;;;;;;;13.53;46.41;102310.84;5003745;28;20143;-77
2022/07/06 05:37:49;;;;;;;2.17;0.20;;;;;;;13.82;45.84;102314.41;5018452;28;20049;-78
2022/07/06 05:40:14;;;;;;;1.85;0.10;;;;;;;13.83;45.41;102316.16;5017986;28;20104;-76
2022/07/06 05:42:41;;;;;;;2.75;0.25;;;;;;;13.84;45.33;102314.38;5019499;28;20272;-78
2022/07/06 05:45:07;;;;;;;4.63;0.10;;;;;;;13.74;45.43;102324.28;5035007;28;20124;-78
2022/07/06 05:50:17;;;;;;;2.15;0.10;;;;;;;13.39;46.54;102333.19;5020171;28;20041;-77
2022/07/06 05:53:00;;;;;;;2.17;0.20;;;;;;;13.39;46.54;102338.44;5002585;28;20606;-77
2022/07/06 05:55:28;;;;;;;0.98;0.00;;;;;;;13.56;45.41;102335.31;5003996;28;20036;-77
2022/07/06 05:57:55;;;;;;;1.58;0.10;;;;;;;13.90;43.74;102329.97;4996387;28;20045;-76
2022/07/06 06:00:24;;;;;;;4.50;0.10;;;;;;;13.88;43.09;102327.38;4999665;28;20048;-77
2022/07/06 06:02:53;;;;;;;5.65;0.13;;;;;;;13.65;42.90;102329.81;5032731;28;20132;-76
2022/07/06 06:05:21;;;;;;;2.80;0.00;;;;;;;13.48;42.13;102320.66;5015286;28;20093;-79
2022/07/06 06:07:50;;;;;;;1.15;0.00;;;;;;;13.92;41.20;102323.75;5001026;28;20446;-77
2022/07/06 06:10:18;;;;;;;0.68;0.00;;;;;;;13.92;40.77;102321.13;5020735;28;20033;-77
2022/07/06 06:12:47;;;;;;;0.35;0.15;;;;;;;13.77;40.07;102318.97;5012647;28;20045;-76
2022/07/06 06:15:13;;;;;;;1.00;0.10;;;;;;;13.87;40.12;102320.38;5015242;28;20037;-77
2022/07/06 06:17:40;;;;;;;0.90;0.05;;;;;;;13.82;40.70;102318.81;4996825;28;20055;-78
2022/07/06 06:20:08;;;;;;;0.00;0.00;;;;;;;13.88;40.35;102322.13;5002898;28;20032;-78
2022/07/06 06:22:56;;;;;;;0.05;0.00;;;;;;;13.99;39.57;102328.81;5014728;28;20041;-78
2022/07/06 06:25:28;;;;;;;2.33;0.20;;;;;;;14.27;39.73;102329.63;5019580;28;20029;-75
2022/07/06 06:27:54;;;;;;;3.40;0.30;;;;;;;14.51;39.43;102335.03;5002482;28;20555;-79
2022/07/06 06:30:20;;;;;;;0.57;0.10;;;;;;;14.36;40.40;102331.94;5001910;28;20025;-76
2022/07/06 06:32:45;;;;;;;0.82;0.00;;;;;;;14.70;39.54;102333.50;5011383;28;20038;-78
2022/07/06 06:35:11;;;;;;;2.53;0.03;;;;;;;14.93;39.73;102334.47;5001460;28;20406;-77
2022/07/06 06:37:37;;;;;;;0.35;0.03;;;;;;;14.84;39.17;102334.81;5039665;28;20037;-78
2022/07/06 06:40:04;;;;;;;1.83;0.00;;;;;;;14.48;39.89;102345.66;5023743;28;20140;-77
2022/07/06 06:42:30;;;;;;;3.20;0.25;;;;;;;14.74;39.70;102328.97;5023426;28;20022;-79
2022/07/06 06:44:57;;;;;;;0.95;0.10;;;;;;;15.28;39.06;102333.25;5014421;28;20037;-76
2022/07/06 06:47:23;;;;;;;1.95;0.00;;;;;;;15.51;39.15;102337.63;5022399;28;20091;-78
2022/07/06 06:49:48;;;;;;;2.83;1.17;;;;;;;15.61;39.40;102334.66;5016146;28;20658;-77
2022/07/06 06:52:14;;;;;;;1.33;0.10;;;;;;;15.87;37.53;102339.78;5017506;28;20116;-77
2022/07/06 06:54:40;;;;;;;2.60;0.00;;;;;;;15.70;38.43;102337.78;5005423;28;20026;-77
2022/07/06 06:57:05;;;;;;;4.40;0.00;;;;;;;15.80;37.49;102347.06;5022539;28;20880;-79
2022/07/06 06:59:31;;;;;;;1.05;0.10;;;;;;;15.90;37.95;102342.28;5018380;28;20114;-77
2022/07/06 07:01:56;;;;;;;2.30;0.32;;;;;;;16.13;38.13;102351.09;5016671;28;20064;-78
2022/07/06 07:04:23;;;;;;;1.20;0.10;;;;;;;15.72;37.95;102340.38;5021693;28;20064;-76
2022/07/06 07:06:48;;;;;;;3.25;0.38;;;;;;;15.72;38.86;102350.91;5011563;28;20087;-78
2022/07/06 07:09:14;;;;;;;0.47;0.00;;;;;;;16.20;38.04;102342.88;5013253;28;20301;-78
2022/07/06 07:11:40;;;;;;;1.17;0.10;;;;;;;15.72;38.08;102351.75;5017971;28;20049;-77
2022/07/06 07:14:05;;;;;;;1.00;0.08;;;;;;;16.28;37.97;102352.25;5032367;28;20550;-78
2022/07/06 07:16:30;;;;;;;1.20;0.03;;;;;;;16.54;37.12;102357.31;5004106;28;20041;-79
2022/07/06 07:18:56;;;;;;;0.57;0.00;;;;;;;16.82;36.50;102348.25;5012642;28;20049;-77
2022/07/06 07:21:22;;;;;;;1.50;0.25;;;;;;;16.85;35.68;102350.75;4997975;28;20042;-76
2022/07/06 07:23:48;;;;;;;3.28;0.32;;;;;;;15.91;37.77;102353.72;5012098;28;20120;-78
2022/07/06 07:26:14;;;;;;;1.75;0.43;;;;;;;16.02;38.07;102363.84;5019899;28;20057;-78
2022/07/06 07:28:39;;;;;;;0.45;0.30;;;;;;;15.91;38.24;102364.25;5011714;28;20029;-78
2022/07/06 07:31:05;;;;;;;0.00;0.00;;;;;;;15.32;39.21;102368.22;5020272;28;20140;-79
2022/07/06 07:33:30;;;;;;;2.45;0.00;;;;;;;15.87;37.98;102370.56;5016888;28;20025;-79
2022/07/06 07:35:56;;;;;;;0.60;0.00;;;;;;;15.79;37.98;102374.34;5016727;28;20037;-78
2022/07/06 07:38:22;;;;;;;0.93;0.20;;;;;;;16.13;37.47;102372.19;5031621;28;20033;-78
2022/07/06 07:40:47;;;;;;;1.27;0.10;;;;;;;15.98;37.71;102360.44;5002326;28;20045;-77
2022/07/06 07:43:13;;;;;;;3.00;0.20;;;;;;;16.08;37.85;102360.97;5019275;28;20060;-77
2022/07/06 07:45:39;;;;;;;3.30;0.10;;;;;;;16.80;37.05;102353.59;4997248;28;20067;-77
2022/07/06 07:48:05;;;;;;;1.05;0.10;;;;;;;16.35;36.91;102351.94;5004684;28;20123;-77
2022/07/06 07:50:31;;;;;;;3.90;1.15;;;;;;;16.04;36.55;102357.63;5018421;28;20098;-78
2022/07/06 07:52:56;;;;;;;0.55;0.20;;;;;;;15.77;37.54;102362.13;5014060;28;20049;-78
2022/07/06 07:55:22;;;;;;;1.23;0.13;;;;;;;15.55;38.71;102365.59;4998348;28;20072;-77
2022/07/06 07:57:47;;;;;;;2.40;0.10;;;;;;;14.35;43.46;102380.22;5016137;28;20052;-78
2022/07/06 08:00:13;;;;;;;2.10;0.10;;;;;;;14.71;42.90;102384.34;5001454;28;20125;-77
2022/07/06 08:02:39;;;;;;;2.58;0.22;;;;;;;14.69;43.50;102367.75;5031872;28;20045;-78
2022/07/06 08:05:05;;;;;;;3.03;0.10;;;;;;;14.57;44.36;102374.31;5009534;28;20069;-79
2022/07/06 08:07:31;;;;;;;1.23;0.10;;;;;;;14.99;44.49;102376.34;5012090;28;20075;-76
2022/07/06 08:09:56;;;;;;;2.40;0.20;;;;;;;15.43;43.43;102370.47;5014841;28;20041;-76
2022/07/06 08:12:22;;;;;;;0.52;0.15;;;;;;;15.74;43.10;102375.44;4998905;28;20474;-79
2022/07/06 08:14:47;;;;;;;1.33;0.13;;;;;;;15.55;41.64;102369.97;4993921;28;20047;-76
2022/07/06 08:17:13;;;;;;;3.08;0.55;;;;;;;16.42;40.13;102366.59;5001697;28;20117;-76
2022/07/06 08:19:38;;;;;;;0.77;0.03;;;;;;;17.79;37.56;102367.72;5000576;28;20026;-76
2022/07/06 08:22:06;;;;;;;4.32;0.05;;;;;;;17.76;35.69;102370.47;5028323;28;20424;-77
2022/07/06 08:24:36;;;;;;;1.88;0.20;;;;;;;18.02;34.66;102375.38;5012055;28;20456;-76
2022/07/06 08:27:03;;;;;;;1.52;0.10;;;;;;;19.09;33.56;102374.50;5031369;28;20115;-78
2022/07/06 08:29:29;;;;;;;4.90;0.10;;;;;;;19.48;31.27;102367.16;5013983;28;20169;-77
2022/07/06 08:31:55;;;;;;;1.17;0.10;;;;;;;20.06;31.08;102369.25;5009336;28;20598;-76
2022/07/06 08:34:21;;;;;;;1.10;0.05;;;;;;;19.67;32.29;102362.56;5014476;28;20029;-77
2022/07/06 08:36:47;;;;;;;0.30;0.10;;;;;;;20.01;31.51;102370.44;4995606;28;20440;-76
2022/07/06 08:39:12;;;;;;;0.60;0.10;;;;;;;20.94;28.13;102366.81;5015024;28;20029;-82
2022/07/06 08:41:41;;;;;;;2.35;0.10;;;;;;;22.86;25.29;102372.22;5013261;28;20175;-76
2022/07/06 08:44:08;;;;;;;3.17;0.65;;;;;;;24.59;24.54;102367.69;5030085;28;20041;-79
2022/07/06 08:46:37;;;;;;;2.85;0.20;;;;;;;24.12;23.11;102374.75;5011565;28;20057;-79
2022/07/06 08:49:05;;;;;;;0.60;0.00;;;;;;;24.22;23.49;102362.41;5013663;28;20038;-77
2022/07/06 08:51:31;;;;;;;2.13;0.05;;;;;;;22.08;26.63;102359.66;5017872;28;20160;-78
2022/07/06 08:53:57;;;;;;;2.75;0.10;;;;;;;22.21;26.63;102360.56;5013080;28;20137;-77
2022/07/06 08:56:22;;;;;;;2.70;0.10;;;;;;;22.49;25.33;102359.56;4998246;28;20543;-78
2022/07/06 08:58:48;;;;;;;0.68;0.13;;;;;;;20.38;28.60;102363.91;5031772;28;20079;-76
2022/07/06 09:01:16;;;;;;;3.67;0.40;;;;;;;19.44;29.83;102369.09;5008330;28;20038;-77
2022/07/06 09:03:45;;;;;;;2.45;0.30;;;;;;;19.45;30.17;102362.84;5012220;28;20033;-78
2022/07/06 09:06:14;;;;;;;3.10;0.10;;;;;;;19.04;30.55;102365.94;5016247;28;20049;-77
2022/07/06 09:08:39;;;;;;;2.65;0.10;;;;;;;18.82;32.43;102374.09;5016658;28;20581;-77
2022/07/06 09:11:05;;;;;;;2.80;0.10;;;;;;;17.68;33.33;102368.19;5018375;28;20041;-77
2022/07/06 09:13:31;;;;;;;1.70;0.05;;;;;;;16.73;35.54;102383.81;5012966;28;20122;-77
2022/07/06 09:16:11;;;;;;;1.75;0.00;;;;;;;15.97;36.32;102385.97;5002450;28;20089;-78
2022/07/06 09:18:38;;;;;;;2.00;0.15;;;;;;;15.34;37.45;102390.94;5036082;28;20029;-76
2022/07/06 09:21:07;;;;;;;0.28;0.00;;;;;;;15.86;37.14;102387.28;5002520;28;20084;-78
2022/07/06 09:23:33;;;;;;;1.10;0.00;;;;;;;15.81;37.38;102398.00;5012816;28;20038;-77
2022/07/06 09:26:03;;;;;;;2.28;0.00;;;;;;;16.56;37.59;102387.13;5010312;28;20654;-77
2022/07/06 09:28:42;;;;;;;0.15;0.00;;;;;;;18.85;34.74;102389.88;5014378;28;20210;-78
2022/07/06 09:31:08;;;;;;;0.38;0.00;;;;;;;20.63;30.22;102376.56;5033324;28;20049;-77
2022/07/06 09:33:35;;;;;;;0.85;0.00;;;;;;;21.70;27.07;102377.16;5015079;28;20037;-78
2022/07/06 09:36:02;;;;;;;0.55;0.00;;;;;;;23.78;25.20;102366.53;5013633;28;20141;-78
2022/07/06 09:38:27;;;;;;;0.38;0.00;;;;;;;22.77;25.53;102371.03;5019898;28;20037;-78
2022/07/06 09:40:54;;;;;;;0.55;0.03;;;;;;;22.56;26.68;102370.66;5009303;28;20053;-76
2022/07/06 09:43:22;;;;;;;1.90;0.00;;;;;;;24.41;24.88;102374.38;5029988;28;20037;-78
2022/07/06 09:45:50;;;;;;;5.57;0.38;;;;;;;22.66;26.68;102365.56;4976597;28;20129;-77
2022/07/06 09:48:18;;;;;;;1.65;0.10;;;;;;;21.43;29.29;102368.25;5005238;28;20101;-78
2022/07/06 09:50:48;;;;;;;2.03;0.57;;;;;;;21.58;28.53;102356.66;4998737;28;20038;-77
2022/07/06 09:53:15;;;;;;;0.85;0.08;;;;;;;20.86;28.79;102363.75;5007801;28;20139;-79
2022/07/06 09:55:48;;;;;;;1.17;0.05;;;;;;;21.82;28.86;102358.69;5017428;28;20441;-78
2022/07/06 09:58:14;;;;;;;3.20;0.38;;;;;;;22.25;27.71;102354.09;5031037;28;20029;-77
2022/07/06 10:00:41;;;;;;;2.40;0.10;;;;;;;21.23;28.02;102359.69;5015781;28;20098;-78
2022/07/06 10:03:08;;;;;;;3.60;0.45;;;;;;;19.85;31.17;102363.34;5019149;28;20052;-78
2022/07/06 10:05:37;;;;;;;2.00;0.10;;;;;;;19.14;32.09;102368.09;5017238;28;20037;-79
2022/07/06 10:08:05;;;;;;;3.90;0.10;;;;;;;17.92;33.87;102368.84;4998121;28;20755;-77
2022/07/06 10:10:32;;;;;;;2.83;0.55;;;;;;;17.90;34.47;102372.50;4993709;28;20046;-78
2022/07/06 10:12:59;;;;;;;2.85;0.00;;;;;;;17.59;34.51;102368.63;5012010;28;20116;-77
2022/07/06 10:15:31;;;;;;;1.65;0.10;;;;;;;18.30;33.71;102368.81;5004091;28;20053;-78
2022/07/06 10:17:58;;;;;;;2.00;0.10;;;;;;;19.03;32.18;102360.72;5004294;28;20041;-79
2022/07/06 10:20:27;;;;;;;3.25;0.10;;;;;;;18.89;31.88;102362.28;5020482;28;20053;-77
2022/07/06 10:22:54;;;;;;;1.73;0.47;;;;;;;18.23;33.44;102360.31;5028681;28;20029;-79
2022/07/06 10:25:21;;;;;;;1.75;0.10;;;;;;;18.25;33.00;102357.56;5019600;28;20334;-77
2022/07/06 10:27:48;;;;;;;1.63;0.00;;;;;;;17.52;34.17;102354.84;5041657;28;20037;-78
2022/07/06 10:30:15;;;;;;;1.02;0.00;;;;;;;17.18;34.56;102363.38;5021709;28;20411;-76
2022/07/06 10:32:43;;;;;;;0.45;0.05;;;;;;;18.69;33.71;102351.84;5003353;28;20438;-77
2022/07/06 10:35:09;;;;;;;3.45;0.10;;;;;;;19.78;31.47;102353.16;5022284;28;20045;-78
2022/07/06 10:37:35;;;;;;;2.33;0.10;;;;;;;20.47;29.26;102358.03;5019598;28;20037;-75
2022/07/06 10:42:51;;;;;;;3.67;0.00;;;;;;;21.00;28.20;102345.19;5035457;28;20036;-76
2022/07/06 10:45:45;;;;;;;0.90;0.00;;;;;;;20.18;28.89;102345.59;5016841;28;20100;-76
2022/07/06 10:48:11;;;;;;;0.25;0.10;;;;;;;20.92;28.58;102342.97;5017162;28;20040;-76
2022/07/06 10:50:45;;;;;;;2.15;0.20;;;;;;;20.70;28.49;102342.53;5021035;28;20436;-76
2022/07/06 10:53:16;;;;;;;1.00;0.20;;;;;;;21.51;27.08;102340.25;5021249;28;20030;-76
2022/07/06 10:55:49;;;;;;;0.43;0.10;;;;;;;21.17;27.63;102341.47;5017753;28;20049;-75
2022/07/06 10:58:15;;;;;;;0.43;0.00;;;;;;;19.82;28.96;102344.09;5013684;28;20045;-76
2022/07/06 11:00:55;;;;;;;2.78;0.00;;;;;;;20.32;28.06;102340.34;5015563;28;20114;-76
2022/07/06 11:03:39;;;;;;;0.10;0.00;;;;;;;20.49;28.27;102344.69;5017723;28;20033;-77
2022/07/06 11:06:13;;;;;;;1.45;0.00;;;;;;;20.55;27.25;102336.31;5012964;28;20591;-77
2022/07/06 11:08:51;;;;;;;0.68;0.10;;;;;;;21.48;26.71;102334.25;5019921;28;20033;-76
2022/07/06 11:11:31;;;;;;;1.90;0.05;;;;;;;22.59;25.96;102339.34;5014429;28;20042;-77
2022/07/06 11:14:17;;;;;;;3.45;0.03;;;;;;;22.09;25.20;102335.63;5000148;28;20550;-76
2022/07/06 11:16:46;;;;;;;0.98;0.00;;;;;;;21.73;25.22;102334.34;5022023;28;20109;-75
2022/07/06 11:19:16;;;;;;;4.57;0.20;;;;;;;21.48;25.60;102332.44;5017230;28;20041;-76
2022/07/06 11:21:45;;;;;;;2.63;0.10;;;;;;;20.37;26.92;102330.31;5021028;28;20029;-77
2022/07/06 11:24:16;;;;;;;7.60;0.20;;;;;;;20.94;26.59;102324.28;5003121;28;20057;-76
2022/07/06 11:26:43;;;;;;;;;;;;;;;21.56;24.83;102321.31;4998401;28;20038;-76
2022/07/06 11:29:10;;;;;;;1.23;0.00;;;;;;;20.07;27.12;102328.47;4979037;28;19986;-74
2022/07/06 11:31:40;;;;;;;1.48;0.00;;;;;;;21.21;25.67;102327.03;5018488;28;20560;-76